Time;durP1;ratioP1;P1;durP2;ratioP2;P2;SDS_P1;SDS_P2;PMS_P1;PMS_P2;Temp;Humidity;BMP_temperature;BMP_pressure;BME280_temperature;BME280_humidity;BME280_pressure;Samples;Min_cycle;Max_cycle;Signal;HPM_P1;HPM_P2
2023/12/08 05:00:58;;;;;;;1999.90;999.90;;;;;;;;;;5854951;23;20237;-73
2023/12/08 05:03:43;;;;;;;1999.90;999.90;;;;;;;;;;4935033;29;20218;-70
2023/12/08 05:06:28;;;;;;;1999.90;999.90;;;;;;;;;;4937271;29;20213;-72
2023/12/08 05:09:13;;;;;;;1999.90;999.90;;;;;;;;;;4931685;29;20268;-71
2023/12/08 05:11:57;;;;;;;1999.90;999.90;;;;;;;;;;4926356;29;20234;-70
2023/12/08 05:14:42;;;;;;;1999.90;999.90;;;;;;;;;;4928903;29;20270;-71
2023/12/08 05:17:28;;;;;;;1999.90;999.90;;;;;;;;;;4920194;29;20346;-70
2023/12/08 05:20:13;;;;;;;1999.90;999.90;;;;;;;;;;4923329;29;20553;-70
2023/12/08 05:22:59;;;;;;;1999.90;999.90;;;;;;;;;;4931459;29;20847;-71
2023/12/08 05:25:44;;;;;;;1999.90;999.90;;;;;;;;;;4933805;29;20205;-70
2023/12/08 05:28:29;;;;;;;1999.90;999.90;;;;;;;;;;4931591;29;20209;-72
2023/12/08 05:31:14;;;;;;;1999.90;999.90;;;;;;;;;;4930713;29;20241;-72
2023/12/08 05:34:00;;;;;;;1999.90;999.90;;;;;;;;;;4922115;29;20251;-72
2023/12/08 05:36:45;;;;;;;1999.90;999.90;;;;;;;;;;4933833;29;20201;-72
2023/12/08 05:39:30;;;;;;;1999.90;999.90;;;;;;;;;;4933307;29;20229;-73
2023/12/08 05:42:15;;;;;;;1999.90;999.90;;;;;;;;;;4926048;29;20323;-71
2023/12/08 05:44:59;;;;;;;1999.90;999.90;;;;;;;;;;4936738;29;20216;-72
2023/12/08 05:47:44;;;;;;;1999.90;999.90;;;;;;;;;;4936568;29;20289;-71
2023/12/08 05:50:31;;;;;;;1999.90;999.90;;;;;;;;;;4936415;29;20212;-72
2023/12/08 05:53:16;;;;;;;1999.90;999.90;;;;;;;;;;4936483;29;20334;-72
2023/12/08 05:56:02;;;;;;;1999.90;999.90;;;;;;;;;;4936749;29;20586;-71
2023/12/08 05:58:48;;;;;;;1999.90;999.90;;;;;;;;;;4934819;29;20300;-71
2023/12/08 06:01:32;;;;;;;1999.90;999.90;;;;;;;;;;4927987;29;20284;-70
2023/12/08 06:04:17;;;;;;;1999.90;999.90;;;;;;;;;;4936472;29;20213;-71
2023/12/08 06:07:04;;;;;;;1999.90;999.90;;;;;;;;;;4929297;29;20238;-71
2023/12/08 06:09:49;;;;;;;1999.90;999.90;;;;;;;;;;4929527;29;20210;-70
2023/12/08 06:12:35;;;;;;;1999.90;999.90;;;;;;;;;;4935878;29;20228;-71
2023/12/08 06:15:19;;;;;;;1999.90;999.90;;;;;;;;;;4934813;29;20216;-70
2023/12/08 06:18:04;;;;;;;1999.90;999.90;;;;;;;;;;4935917;29;20238;-72
2023/12/08 06:20:49;;;;;;;1999.90;999.90;;;;;;;;;;4931005;29;20233;-72
2023/12/08 06:23:36;;;;;;;1999.90;999.90;;;;;;;;;;4919672;29;20426;-72
2023/12/08 06:26:21;;;;;;;1999.90;999.90;;;;;;;;;;4925541;29;20379;-72
2023/12/08 06:29:07;;;;;;;1999.90;999.90;;;;;;;;;;4935825;29;20209;-73
2023/12/08 06:31:52;;;;;;;1999.90;999.90;;;;;;;;;;4934392;29;20715;-73
2023/12/08 06:34:36;;;;;;;1999.90;999.90;;;;;;;;;;4935631;29;20209;-70
2023/12/08 06:37:22;;;;;;;1999.90;999.90;;;;;;;;;;4935623;29;20221;-71
2023/12/08 06:40:10;;;;;;;1999.90;999.90;;;;;;;;;;4935424;29;20217;-71
2023/12/08 06:42:55;;;;;;;1999.90;999.90;;;;;;;;;;4929916;29;20601;-72
2023/12/08 06:45:40;;;;;;;1999.90;999.90;;;;;;;;;;4934824;29;20488;-71
2023/12/08 06:48:25;;;;;;;1999.90;999.90;;;;;;;;;;4935793;29;20693;-72
2023/12/08 06:51:10;;;;;;;1999.90;999.90;;;;;;;;;;4935036;29;20241;-72
2023/12/08 06:53:55;;;;;;;1999.90;999.90;;;;;;;;;;4935397;29;20212;-72
2023/12/08 06:56:42;;;;;;;1999.90;999.90;;;;;;;;;;4935196;29;20205;-70
2023/12/08 06:59:27;;;;;;;1999.90;999.90;;;;;;;;;;4933643;29;20265;-72
2023/12/08 07:02:12;;;;;;;1999.90;999.90;;;;;;;;;;4934616;29;20754;-72
2023/12/08 07:04:57;;;;;;;1999.90;999.90;;;;;;;;;;4917727;29;20210;-71
2023/12/08 07:07:42;;;;;;;1999.90;999.90;;;;;;;;;;4927610;29;20517;-73
2023/12/08 07:10:27;;;;;;;1999.90;999.90;;;;;;;;;;4934900;29;20333;-73
2023/12/08 07:13:13;;;;;;;1999.90;999.90;;;;;;;;;;4919960;29;20213;-73
2023/12/08 07:15:58;;;;;;;1999.90;999.90;;;;;;;;;;4934133;29;20212;-72
2023/12/08 07:18:43;;;;;;;1999.90;999.90;;;;;;;;;;4934658;29;20788;-73
2023/12/08 07:21:28;;;;;;;1999.90;999.90;;;;;;;;;;4934756;29;20797;-71
2023/12/08 07:24:13;;;;;;;1999.90;999.90;;;;;;;;;;4935420;29;20576;-74
2023/12/08 07:26:58;;;;;;;1999.90;999.90;;;;;;;;;;4935312;29;20285;-72
2023/12/08 07:29:45;;;;;;;1999.90;999.90;;;;;;;;;;4934498;29;20265;-72
2023/12/08 07:32:30;;;;;;;1999.90;999.90;;;;;;;;;;4935867;29;20228;-73
2023/12/08 07:35:14;;;;;;;1999.90;999.90;;;;;;;;;;4930557;29;20209;-72
2023/12/08 07:37:59;;;;;;;1999.90;999.90;;;;;;;;;;4932016;29;20216;-72
2023/12/08 07:40:45;;;;;;;1999.90;999.90;;;;;;;;;;4932914;29;20280;-71
2023/12/08 07:43:30;;;;;;;1999.90;999.90;;;;;;;;;;4931479;29;20221;-70
2023/12/08 07:46:17;;;;;;;1999.90;999.90;;;;;;;;;;4933601;29;21019;-70
2023/12/08 07:49:02;;;;;;;1999.90;999.90;;;;;;;;;;4934163;29;20213;-74
2023/12/08 07:51:47;;;;;;;1999.90;999.90;;;;;;;;;;4930261;29;20238;-72
2023/12/08 07:54:32;;;;;;;1999.90;999.90;;;;;;;;;;4933032;29;20213;-73
2023/12/08 07:57:18;;;;;;;1999.90;999.90;;;;;;;;;;4932489;29;20598;-73
2023/12/08 08:00:05;;;;;;;1999.90;999.90;;;;;;;;;;4932249;29;20269;-72
2023/12/08 08:02:52;;;;;;;1999.90;999.90;;;;;;;;;;4933373;29;20296;-73
2023/12/08 08:05:37;;;;;;;1999.90;999.90;;;;;;;;;;4934053;29;20224;-73
2023/12/08 08:08:22;;;;;;;1999.90;999.90;;;;;;;;;;4928178;29;20446;-73
2023/12/08 08:11:07;;;;;;;1999.90;999.90;;;;;;;;;;4928963;29;20278;-72
2023/12/08 08:13:53;;;;;;;1999.90;999.90;;;;;;;;;;4927491;29;20213;-72
2023/12/08 08:16:37;;;;;;;1999.90;999.90;;;;;;;;;;4932759;29;20216;-72
2023/12/08 08:19:24;;;;;;;1999.90;999.90;;;;;;;;;;4933498;29;20593;-72
2023/12/08 08:22:09;;;;;;;1999.90;999.90;;;;;;;;;;4934124;29;20316;-73
2023/12/08 08:24:54;;;;;;;1999.90;999.90;;;;;;;;;;4925877;29;20618;-74
2023/12/08 08:27:39;;;;;;;1999.90;999.90;;;;;;;;;;4933204;29;20221;-73
2023/12/08 08:30:24;;;;;;;1999.90;999.90;;;;;;;;;;4930886;29;20747;-73
2023/12/08 08:33:09;;;;;;;1999.90;999.90;;;;;;;;;;4934154;29;20593;-73
2023/12/08 08:35:55;;;;;;;1999.90;999.90;;;;;;;;;;4929357;29;20218;-74
2023/12/08 08:38:40;;;;;;;1999.90;999.90;;;;;;;;;;4932993;29;20221;-72
2023/12/08 08:41:25;;;;;;;1999.90;999.90;;;;;;;;;;4932171;29;20321;-73
2023/12/08 08:44:10;;;;;;;1999.90;999.90;;;;;;;;;;4933056;29;20210;-71
2023/12/08 08:46:54;;;;;;;1999.90;999.90;;;;;;;;;;4929601;29;20209;-71
2023/12/08 08:49:39;;;;;;;1999.90;999.90;;;;;;;;;;4934183;29;20209;-71
2023/12/08 08:52:26;;;;;;;1999.90;999.90;;;;;;;;;;4931750;29;20369;-71
2023/12/08 08:55:11;;;;;;;1999.90;999.90;;;;;;;;;;4933284;29;20285;-72
2023/12/08 08:57:56;;;;;;;1999.90;999.90;;;;;;;;;;4944462;29;20326;-72
2023/12/08 09:00:41;;;;;;;1999.90;999.90;;;;;;;;;;4934083;29;20241;-76
2023/12/08 09:03:26;;;;;;;1999.90;999.90;;;;;;;;;;4933239;29;20585;-73
2023/12/08 09:06:11;;;;;;;1999.90;999.90;;;;;;;;;;4935299;29;20446;-71
2023/12/08 09:08:58;;;;;;;1999.90;999.90;;;;;;;;;;4936714;29;20338;-70
2023/12/08 09:11:43;;;;;;;1999.90;999.90;;;;;;;;;;4936334;29;20361;-72
2023/12/08 09:14:28;;;;;;;1999.90;999.90;;;;;;;;;;4932836;29;20217;-71
2023/12/08 09:17:13;;;;;;;1999.90;999.90;;;;;;;;;;4938757;29;20706;-73
2023/12/08 09:19:58;;;;;;;1999.90;999.90;;;;;;;;;;4929063;29;20245;-72
2023/12/08 09:22:43;;;;;;;1999.90;999.90;;;;;;;;;;4917805;29;20733;-73
2023/12/08 09:25:29;;;;;;;1999.90;999.90;;;;;;;;;;4917968;29;20240;-76
2023/12/08 09:28:16;;;;;;;1999.90;999.90;;;;;;;;;;4922836;29;20342;-73
2023/12/08 09:31:01;;;;;;;1999.90;999.90;;;;;;;;;;4935686;29;20229;-72
2023/12/08 09:33:46;;;;;;;1999.90;999.90;;;;;;;;;;4935721;29;20222;-71
2023/12/08 09:36:33;;;;;;;1999.90;999.90;;;;;;;;;;4932418;29;20346;-71
2023/12/08 09:39:19;;;;;;;1999.90;999.90;;;;;;;;;;4935478;29;20233;-73
2023/12/08 09:42:07;;;;;;;1999.90;999.90;;;;;;;;;;4935774;29;20804;-71
2023/12/08 09:44:52;;;;;;;1999.90;999.90;;;;;;;;;;4935343;29;20238;-72
2023/12/08 09:47:37;;;;;;;1999.90;999.90;;;;;;;;;;4936688;29;20221;-71
2023/12/08 09:50:22;;;;;;;1999.90;999.90;;;;;;;;;;4935517;29;20776;-72
2023/12/08 09:53:08;;;;;;;1999.90;999.90;;;;;;;;;;4934752;29;20607;-70
2023/12/08 09:55:53;;;;;;;1999.90;999.90;;;;;;;;;;4935033;29;20599;-71
2023/12/08 09:58:40;;;;;;;1999.90;999.90;;;;;;;;;;4936483;29;20217;-71
2023/12/08 10:01:26;;;;;;;1999.90;999.90;;;;;;;;;;4935985;29;20253;-72
2023/12/08 10:04:11;;;;;;;1999.90;999.90;;;;;;;;;;4935348;29;20261;-71
2023/12/08 10:06:57;;;;;;;1999.90;999.90;;;;;;;;;;4936045;29;20346;-73
2023/12/08 10:09:42;;;;;;;1999.90;999.90;;;;;;;;;;4935595;29;20213;-73
2023/12/08 10:24:02;;;;;;;1999.90;999.90;;;;;;;;;;5088714;28;21183;-73
2023/12/08 10:26:47;;;;;;;1999.90;999.90;;;;;;;;;;5082565;28;20606;-74
2023/12/08 10:29:32;;;;;;;1999.90;999.90;;;;;;;;;;5087350;28;20213;-74
2023/12/08 10:32:18;;;;;;;1999.90;999.90;;;;;;;;;;5064415;28;20608;-73
2023/12/08 10:35:03;;;;;;;1999.90;999.90;;;;;;;;;;5060151;28;20693;-75
2023/12/08 10:37:48;;;;;;;1999.90;999.90;;;;;;;;;;5064765;28;20425;-72
2023/12/08 10:40:35;;;;;;;1999.90;999.90;;;;;;;;;;5049948;28;20203;-71
2023/12/08 10:43:23;;;;;;;1999.90;999.90;;;;;;;;;;5057002;28;20203;-73
2023/12/08 10:46:08;;;;;;;1999.90;999.90;;;;;;;;;;5058616;28;20210;-73
2023/12/08 10:48:54;;;;;;;1999.90;999.90;;;;;;;;;;5067558;28;20261;-73
2023/12/08 10:51:39;;;;;;;1999.90;999.90;;;;;;;;;;5068149;28;20226;-73
2023/12/08 10:54:25;;;;;;;1999.90;999.90;;;;;;;;;;5067510;28;20211;-74
2023/12/08 10:57:11;;;;;;;1999.90;999.90;;;;;;;;;;5056711;28;20695;-73
2023/12/08 10:59:58;;;;;;;1999.90;999.90;;;;;;;;;;5067436;28;20225;-73
2023/12/08 11:02:43;;;;;;;1999.90;999.90;;;;;;;;;;5064042;28;20249;-73
2023/12/08 11:05:30;;;;;;;1999.90;999.90;;;;;;;;;;5067386;28;20213;-74
2023/12/08 11:08:17;;;;;;;1999.90;999.90;;;;;;;;;;5056195;28;20207;-73
2023/12/08 11:11:04;;;;;;;1999.90;999.90;;;;;;;;;;5049801;28;20247;-73
2023/12/08 11:13:54;;;;;;;1999.90;999.90;;;;;;;;;;5064848;28;20683;-73
2023/12/08 11:16:44;;;;;;;1999.90;999.90;;;;;;;;;;5063498;28;20709;-73
2023/12/08 11:19:29;;;;;;;1999.90;999.90;;;;;;;;;;5062317;28;20197;-73
2023/12/08 11:22:14;;;;;;;1999.90;999.90;;;;;;;;;;5064502;28;20236;-72
2023/12/08 11:25:00;;;;;;;1999.90;999.90;;;;;;;;;;5071211;28;20317;-73
2023/12/08 11:27:49;;;;;;;1999.90;999.90;;;;;;;;;;5071738;28;20211;-72
2023/12/08 11:30:38;;;;;;;1999.90;999.90;;;;;;;;;;5073321;28;20219;-72
2023/12/08 11:33:30;;;;;;;1999.90;999.90;;;;;;;;;;5070089;28;20324;-71
2023/12/08 11:36:18;;;;;;;1999.90;999.90;;;;;;;;;;5064776;28;20210;-71
2023/12/08 11:39:18;;;;;;;1999.90;999.90;;;;;;;;;;5071662;28;20219;-71
2023/12/08 11:42:03;;;;;;;1999.90;999.90;;;;;;;;;;5065631;28;20226;-72
2023/12/08 11:44:49;;;;;;;1999.90;999.90;;;;;;;;;;5074057;28;20635;-72
2023/12/08 11:47:35;;;;;;;1999.90;999.90;;;;;;;;;;5073346;28;20264;-73
2023/12/08 11:50:20;;;;;;;1999.90;999.90;;;;;;;;;;5062024;28;20211;-73
2023/12/08 11:53:06;;;;;;;1999.90;999.90;;;;;;;;;;5053931;28;20222;-71
2023/12/08 11:55:51;;;;;;;1999.90;999.90;;;;;;;;;;5068101;28;20283;-72
2023/12/08 11:58:40;;;;;;;1999.90;999.90;;;;;;;;;;5067202;28;20428;-72
2023/12/08 12:01:25;;;;;;;1999.90;999.90;;;;;;;;;;5071787;28;20236;-72
2023/12/08 12:04:11;;;;;;;1999.90;999.90;;;;;;;;;;5066415;28;20621;-71
2023/12/08 12:06:56;;;;;;;1999.90;999.90;;;;;;;;;;5063599;28;20792;-73
2023/12/08 12:09:42;;;;;;;1999.90;999.90;;;;;;;;;;5072673;28;20581;-74
2023/12/08 12:12:28;;;;;;;1999.90;999.90;;;;;;;;;;5065960;28;20283;-71
2023/12/08 12:15:15;;;;;;;1999.90;999.90;;;;;;;;;;5068941;28;20216;-71
2023/12/08 12:18:01;;;;;;;1999.90;999.90;;;;;;;;;;5070689;28;20211;-71
2023/12/08 12:20:47;;;;;;;1999.90;999.90;;;;;;;;;;5063172;28;20297;-71
2023/12/08 12:23:32;;;;;;;1999.90;999.90;;;;;;;;;;5062557;28;20214;-71
2023/12/08 12:26:20;;;;;;;1999.90;999.90;;;;;;;;;;5064555;28;20582;-70
2023/12/08 12:29:05;;;;;;;1999.90;999.90;;;;;;;;;;5069107;28;20216;-71
2023/12/08 12:31:50;;;;;;;1999.90;999.90;;;;;;;;;;5063192;28;20611;-71
2023/12/08 12:34:35;;;;;;;1999.90;999.90;;;;;;;;;;5060135;28;20308;-70
2023/12/08 12:37:21;;;;;;;1999.90;999.90;;;;;;;;;;5062009;28;20253;-72
2023/12/08 12:40:08;;;;;;;1999.90;999.90;;;;;;;;;;5067469;28;20219;-70
2023/12/08 12:42:53;;;;;;;1999.90;999.90;;;;;;;;;;5066302;28;20231;-72
2023/12/08 12:45:38;;;;;;;1999.90;999.90;;;;;;;;;;5071282;28;20213;-72
2023/12/08 12:48:25;;;;;;;1999.90;999.90;;;;;;;;;;5067506;28;20242;-73
2023/12/08 12:51:10;;;;;;;1999.90;999.90;;;;;;;;;;5068719;28;20743;-70
2023/12/08 12:53:56;;;;;;;1999.90;999.90;;;;;;;;;;5070160;28;20563;-71
2023/12/08 12:56:49;;;;;;;1999.90;999.90;;;;;;;;;;5064318;28;20227;-71
2023/12/08 12:59:33;;;;;;;1999.90;999.90;;;;;;;;;;5052876;28;20276;-71
2023/12/08 13:02:25;;;;;;;1999.90;999.90;;;;;;;;;;5056335;28;20261;-69
2023/12/08 13:05:10;;;;;;;1999.90;999.90;;;;;;;;;;5060550;28;20285;-70
2023/12/08 13:07:56;;;;;;;1999.90;999.90;;;;;;;;;;5063690;28;20208;-71
2023/12/08 13:10:43;;;;;;;1999.90;999.90;;;;;;;;;;5053696;28;20304;-70
2023/12/08 13:13:28;;;;;;;1999.90;999.90;;;;;;;;;;5062716;28;20235;-71
2023/12/08 13:16:13;;;;;;;1999.90;999.90;;;;;;;;;;5063052;28;20319;-72
2023/12/08 13:18:59;;;;;;;1999.90;999.90;;;;;;;;;;5067641;28;20411;-72
2023/12/08 13:21:44;;;;;;;1999.90;999.90;;;;;;;;;;5051966;28;20268;-71
2023/12/08 13:24:29;;;;;;;1999.90;999.90;;;;;;;;;;5062756;28;20339;-70
2023/12/08 13:27:15;;;;;;;1999.90;999.90;;;;;;;;;;5068594;28;20216;-71
2023/12/08 13:30:00;;;;;;;1999.90;999.90;;;;;;;;;;5063656;28;20304;-72
2023/12/08 13:32:45;;;;;;;1999.90;999.90;;;;;;;;;;5070214;28;20231;-71
2023/12/08 13:35:30;;;;;;;1999.90;999.90;;;;;;;;;;5059705;28;20209;-71
2023/12/08 13:38:15;;;;;;;1999.90;999.90;;;;;;;;;;5063773;28;20314;-73
2023/12/08 13:41:00;;;;;;;1999.90;999.90;;;;;;;;;;5071870;28;20222;-71
2023/12/08 13:43:46;;;;;;;1999.90;999.90;;;;;;;;;;5071280;28;20687;-71
2023/12/08 13:46:31;;;;;;;1999.90;999.90;;;;;;;;;;5059783;28;20230;-71
2023/12/08 13:49:16;;;;;;;1999.90;999.90;;;;;;;;;;5052068;28;20383;-73
2023/12/08 13:52:01;;;;;;;1999.90;999.90;;;;;;;;;;5067427;28;20236;-71
2023/12/08 13:54:46;;;;;;;1999.90;999.90;;;;;;;;;;5071326;28;20212;-71
2023/12/08 13:57:31;;;;;;;1999.90;999.90;;;;;;;;;;5065710;28;20253;-71
2023/12/08 14:00:17;;;;;;;1999.90;999.90;;;;;;;;;;5072070;28;20208;-70
2023/12/08 14:03:03;;;;;;;1999.90;999.90;;;;;;;;;;5072049;28;20285;-70
2023/12/08 14:05:48;;;;;;;1999.90;999.90;;;;;;;;;;5062553;28;20228;-71
2023/12/08 14:08:33;;;;;;;1999.90;999.90;;;;;;;;;;5064368;28;20215;-69
2023/12/08 14:11:19;;;;;;;1999.90;999.90;;;;;;;;;;5067653;28;20229;-70
2023/12/08 14:14:03;;;;;;;1999.90;999.90;;;;;;;;;;5051495;28;20235;-70
2023/12/08 14:16:49;;;;;;;1999.90;999.90;;;;;;;;;;5050298;28;20405;-69
2023/12/08 14:19:34;;;;;;;1999.90;999.90;;;;;;;;;;5050894;28;20434;-70
2023/12/08 14:22:19;;;;;;;1999.90;999.90;;;;;;;;;;5051356;28;20327;-69
2023/12/08 14:25:05;;;;;;;1999.90;999.90;;;;;;;;;;5051602;28;20251;-70
2023/12/08 14:27:50;;;;;;;1999.90;999.90;;;;;;;;;;5051684;28;20200;-70
2023/12/08 14:30:35;;;;;;;1999.90;999.90;;;;;;;;;;5051252;28;20567;-69
2023/12/08 14:33:21;;;;;;;1999.90;999.90;;;;;;;;;;5051403;28;20223;-70
2023/12/08 14:36:07;;;;;;;1999.90;999.90;;;;;;;;;;5051557;28;20201;-69
2023/12/08 14:38:52;;;;;;;1999.90;999.90;;;;;;;;;;5051596;28;20227;-68
2023/12/08 14:41:36;;;;;;;1999.90;999.90;;;;;;;;;;5049759;28;20893;-70
2023/12/08 14:44:21;;;;;;;1999.90;999.90;;;;;;;;;;5051519;28;20589;-70
2023/12/08 14:47:09;;;;;;;1999.90;999.90;;;;;;;;;;5051466;28;20209;-72
2023/12/08 14:49:55;;;;;;;1999.90;999.90;;;;;;;;;;5051233;28;20320;-71
2023/12/08 14:52:40;;;;;;;1999.90;999.90;;;;;;;;;;5066808;28;20243;-71
2023/12/08 14:55:25;;;;;;;1999.90;999.90;;;;;;;;;;5055031;28;20603;-72
2023/12/08 14:58:09;;;;;;;1999.90;999.90;;;;;;;;;;5071591;28;20214;-71
2023/12/08 15:00:54;;;;;;;1999.90;999.90;;;;;;;;;;5073997;28;20274;-72
2023/12/08 15:03:39;;;;;;;1999.90;999.90;;;;;;;;;;5064409;28;20696;-72
2023/12/08 15:06:25;;;;;;;1999.90;999.90;;;;;;;;;;5071727;28;20825;-72
2023/12/08 15:09:11;;;;;;;1999.90;999.90;;;;;;;;;;5065114;28;20213;-71
2023/12/08 15:11:56;;;;;;;1999.90;999.90;;;;;;;;;;5063491;28;20283;-73
2023/12/08 15:14:41;;;;;;;1999.90;999.90;;;;;;;;;;5068893;28;20727;-73
2023/12/08 15:17:26;;;;;;;1999.90;999.90;;;;;;;;;;5071172;28;20334;-71
2023/12/08 15:20:12;;;;;;;1999.90;999.90;;;;;;;;;;5072973;28;20212;-71
2023/12/08 15:22:59;;;;;;;1999.90;999.90;;;;;;;;;;5061261;28;20224;-69
2023/12/08 15:25:44;;;;;;;1999.90;999.90;;;;;;;;;;5066548;28;21024;-72
2023/12/08 15:28:29;;;;;;;1999.90;999.90;;;;;;;;;;5075484;28;20212;-71
2023/12/08 15:31:14;;;;;;;1999.90;999.90;;;;;;;;;;5060873;28;20728;-70
2023/12/08 15:33:59;;;;;;;1999.90;999.90;;;;;;;;;;5066449;28;20341;-71
2023/12/08 15:36:44;;;;;;;1999.90;999.90;;;;;;;;;;5070089;28;20900;-71
2023/12/08 15:39:31;;;;;;;1999.90;999.90;;;;;;;;;;5054371;28;20223;-71
2023/12/08 15:42:16;;;;;;;1999.90;999.90;;;;;;;;;;5054126;28;20318;-69
2023/12/08 15:45:01;;;;;;;1999.90;999.90;;;;;;;;;;5069829;28;20312;-70
2023/12/08 15:47:46;;;;;;;1999.90;999.90;;;;;;;;;;5067704;28;20689;-71
2023/12/08 15:50:31;;;;;;;1999.90;999.90;;;;;;;;;;5076055;28;20204;-72
2023/12/08 15:53:16;;;;;;;1999.90;999.90;;;;;;;;;;5073804;28;20239;-71
2023/12/08 15:56:03;;;;;;;1999.90;999.90;;;;;;;;;;5074131;28;20231;-72
2023/12/08 15:58:48;;;;;;;1999.90;999.90;;;;;;;;;;5067773;28;20708;-71
2023/12/08 16:01:33;;;;;;;1999.90;999.90;;;;;;;;;;5052936;28;20483;-70
2023/12/08 16:04:17;;;;;;;1999.90;999.90;;;;;;;;;;5060530;28;20213;-71
2023/12/08 16:07:03;;;;;;;1999.90;999.90;;;;;;;;;;5066589;28;20407;-71
2023/12/08 16:09:49;;;;;;;1999.90;999.90;;;;;;;;;;5066939;28;20211;-72
2023/12/08 16:12:35;;;;;;;1999.90;999.90;;;;;;;;;;5071732;28;20221;-71
2023/12/08 16:15:20;;;;;;;1999.90;999.90;;;;;;;;;;5063919;28;20805;-72
2023/12/08 16:18:05;;;;;;;1999.90;999.90;;;;;;;;;;5065395;28;20207;-71
2023/12/08 16:20:50;;;;;;;1999.90;999.90;;;;;;;;;;5072125;28;20227;-72
2023/12/08 16:23:39;;;;;;;1999.90;999.90;;;;;;;;;;5062095;28;20217;-72
2023/12/08 16:26:24;;;;;;;1999.90;999.90;;;;;;;;;;5068754;28;20208;-72
2023/12/08 16:29:11;;;;;;;1999.90;999.90;;;;;;;;;;5070712;28;20296;-72
2023/12/08 16:31:55;;;;;;;1999.90;999.90;;;;;;;;;;5072554;28;20229;-72
2023/12/08 16:34:40;;;;;;;1999.90;999.90;;;;;;;;;;5061709;28;20272;-71
2023/12/08 16:37:25;;;;;;;1999.90;999.90;;;;;;;;;;5065076;28;20285;-70
2023/12/08 16:40:11;;;;;;;1999.90;999.90;;;;;;;;;;5070336;28;20777;-71
2023/12/08 16:42:56;;;;;;;1999.90;999.90;;;;;;;;;;5072347;28;20294;-71
2023/12/08 16:45:43;;;;;;;1999.90;999.90;;;;;;;;;;5067888;28;20211;-71
2023/12/08 16:48:28;;;;;;;1999.90;999.90;;;;;;;;;;5064780;28;20247;-72
2023/12/08 16:51:13;;;;;;;1999.90;999.90;;;;;;;;;;5070611;28;20232;-71
2023/12/08 16:53:57;;;;;;;1999.90;999.90;;;;;;;;;;5067644;28;20336;-72
2023/12/08 16:56:42;;;;;;;1999.90;999.90;;;;;;;;;;5066593;28;20699;-72
2023/12/08 16:59:27;;;;;;;1999.90;999.90;;;;;;;;;;5069379;28;20423;-72
2023/12/08 17:02:13;;;;;;;1999.90;999.90;;;;;;;;;;5070644;28;20236;-72
2023/12/08 17:04:58;;;;;;;1999.90;999.90;;;;;;;;;;5070693;28;20207;-72
2023/12/08 17:07:43;;;;;;;1999.90;999.90;;;;;;;;;;5065605;28;20287;-71
2023/12/08 17:10:28;;;;;;;1999.90;999.90;;;;;;;;;;5071546;28;20247;-72
2023/12/08 17:13:13;;;;;;;1999.90;999.90;;;;;;;;;;5063213;28;20754;-71
2023/12/08 17:15:58;;;;;;;1999.90;999.90;;;;;;;;;;5071530;28;20200;-72
2023/12/08 17:18:44;;;;;;;1999.90;999.90;;;;;;;;;;5071201;28;20213;-72
2023/12/08 17:21:29;;;;;;;1999.90;999.90;;;;;;;;;;5066537;28;21008;-72
2023/12/08 17:24:14;;;;;;;1999.90;999.90;;;;;;;;;;5052692;28;20208;-71
2023/12/08 17:26:59;;;;;;;1999.90;999.90;;;;;;;;;;5072464;28;20204;-71
2023/12/08 17:29:44;;;;;;;1999.90;999.90;;;;;;;;;;5068331;28;20321;-72
2023/12/08 17:32:29;;;;;;;1999.90;999.90;;;;;;;;;;5068928;28;20821;-72
2023/12/08 17:35:15;;;;;;;1999.90;999.90;;;;;;;;;;5067960;28;20251;-72
2023/12/08 17:38:00;;;;;;;1999.90;999.90;;;;;;;;;;5064309;28;20212;-71
2023/12/08 17:40:45;;;;;;;1999.90;999.90;;;;;;;;;;5066591;28;20326;-70
2023/12/08 17:43:30;;;;;;;1999.90;999.90;;;;;;;;;;5062651;28;20208;-70
2023/12/08 17:46:16;;;;;;;1999.90;999.90;;;;;;;;;;5071894;28;20212;-72
2023/12/08 17:49:01;;;;;;;1999.90;999.90;;;;;;;;;;5063672;28;20735;-72
2023/12/08 17:51:48;;;;;;;1999.90;999.90;;;;;;;;;;5064103;28;20229;-72
2023/12/08 17:54:33;;;;;;;1999.90;999.90;;;;;;;;;;5063561;28;20374;-72
2023/12/08 17:57:18;;;;;;;1999.90;999.90;;;;;;;;;;5061444;28;20324;-71
2023/12/08 18:00:03;;;;;;;1999.90;999.90;;;;;;;;;;5069421;28;20758;-73
2023/12/08 18:02:50;;;;;;;1999.90;999.90;;;;;;;;;;5055724;28;20342;-72
2023/12/08 18:05:36;;;;;;;1999.90;999.90;;;;;;;;;;5055878;28;20200;-73
2023/12/08 18:08:22;;;;;;;1999.90;999.90;;;;;;;;;;5067765;28;20296;-71
2023/12/08 18:11:07;;;;;;;1999.90;999.90;;;;;;;;;;5065744;28;20280;-72
2023/12/08 18:13:53;;;;;;;1999.90;999.90;;;;;;;;;;5064856;28;20219;-72
2023/12/08 18:16:44;;;;;;;1999.90;999.90;;;;;;;;;;5070246;28;20232;-72
2023/12/08 18:19:28;;;;;;;1999.90;999.90;;;;;;;;;;5052437;28;20540;-72
2023/12/08 18:22:13;;;;;;;1999.90;999.90;;;;;;;;;;5061568;28;20311;-72
2023/12/08 18:24:59;;;;;;;1999.90;999.90;;;;;;;;;;5063219;28;20208;-72
2023/12/08 18:27:44;;;;;;;1999.90;999.90;;;;;;;;;;5065482;28;20735;-74
2023/12/08 18:30:29;;;;;;;1999.90;999.90;;;;;;;;;;5060464;28;20216;-70
2023/12/08 18:33:14;;;;;;;1999.90;999.90;;;;;;;;;;5071839;28;20583;-73
2023/12/08 18:35:59;;;;;;;1999.90;999.90;;;;;;;;;;5065742;28;20254;-73
2023/12/08 18:38:43;;;;;;;1999.90;999.90;;;;;;;;;;5067243;28;20227;-73
2023/12/08 18:41:30;;;;;;;1999.90;999.90;;;;;;;;;;5072228;28;20278;-73
2023/12/08 18:44:15;;;;;;;1999.90;999.90;;;;;;;;;;5071391;28;20208;-72
2023/12/08 18:47:00;;;;;;;1999.90;999.90;;;;;;;;;;5069136;28;20209;-72
2023/12/08 18:49:45;;;;;;;1999.90;999.90;;;;;;;;;;5066899;28;20223;-73
2023/12/08 18:52:30;;;;;;;1999.90;999.90;;;;;;;;;;5074131;28;20355;-72
2023/12/08 18:55:15;;;;;;;1999.90;999.90;;;;;;;;;;5060352;28;20314;-73
2023/12/08 18:58:02;;;;;;;1999.90;999.90;;;;;;;;;;5074338;28;20745;-71
2023/12/08 19:00:47;;;;;;;1999.90;999.90;;;;;;;;;;5071263;28;20355;-71
2023/12/08 19:03:31;;;;;;;1999.90;999.90;;;;;;;;;;5066754;28;20591;-73
2023/12/08 19:06:16;;;;;;;1999.90;999.90;;;;;;;;;;5073119;28;20307;-74
2023/12/08 19:09:01;;;;;;;1999.90;999.90;;;;;;;;;;5067906;28;20294;-72
2023/12/08 19:11:46;;;;;;;1999.90;999.90;;;;;;;;;;5064245;28;20323;-72
2023/12/08 19:14:32;;;;;;;1999.90;999.90;;;;;;;;;;5072506;28;20224;-71
2023/12/08 19:17:17;;;;;;;1999.90;999.90;;;;;;;;;;5070060;28;20211;-72
2023/12/08 19:20:03;;;;;;;1999.90;999.90;;;;;;;;;;5067435;28;20204;-73
2023/12/08 19:22:48;;;;;;;1999.90;999.90;;;;;;;;;;5070874;28;20293;-72
2023/12/08 19:25:33;;;;;;;1999.90;999.90;;;;;;;;;;5071152;28;20251;-71
2023/12/08 19:28:18;;;;;;;1999.90;999.90;;;;;;;;;;5073956;28;20207;-72
2023/12/08 19:31:04;;;;;;;1999.90;999.90;;;;;;;;;;5066858;28;20699;-73
2023/12/08 19:33:49;;;;;;;1999.90;999.90;;;;;;;;;;5065166;28;20212;-72
2023/12/08 19:36:34;;;;;;;1999.90;999.90;;;;;;;;;;5071449;28;20216;-72
2023/12/08 19:39:19;;;;;;;1999.90;999.90;;;;;;;;;;5061281;28;20582;-73
2023/12/08 19:42:05;;;;;;;1999.90;999.90;;;;;;;;;;5055523;28;20248;-71
2023/12/08 19:44:50;;;;;;;1999.90;999.90;;;;;;;;;;5062370;28;20258;-73
2023/12/08 19:47:37;;;;;;;1999.90;999.90;;;;;;;;;;5063132;28;20252;-73
2023/12/08 19:50:22;;;;;;;1999.90;999.90;;;;;;;;;;5052744;28;20579;-72
2023/12/08 19:53:07;;;;;;;1999.90;999.90;;;;;;;;;;5061406;28;20228;-72
2023/12/08 19:55:52;;;;;;;1999.90;999.90;;;;;;;;;;5064237;28;20257;-73
2023/12/08 19:58:37;;;;;;;1999.90;999.90;;;;;;;;;;5064811;28;20208;-73
2023/12/08 20:01:21;;;;;;;1999.90;999.90;;;;;;;;;;5057745;28;20232;-72
2023/12/08 20:04:08;;;;;;;1999.90;999.90;;;;;;;;;;5063281;28;20405;-72
2023/12/08 20:06:53;;;;;;;1999.90;999.90;;;;;;;;;;5055507;28;20213;-72
2023/12/08 20:09:38;;;;;;;1999.90;999.90;;;;;;;;;;5054107;28;20312;-72
2023/12/08 20:12:23;;;;;;;1999.90;999.90;;;;;;;;;;5063704;28;20240;-73
2023/12/08 20:15:08;;;;;;;1999.90;999.90;;;;;;;;;;5063017;28;20227;-73
2023/12/08 20:17:53;;;;;;;1999.90;999.90;;;;;;;;;;5065589;28;20756;-73
2023/12/08 20:20:40;;;;;;;1999.90;999.90;;;;;;;;;;5057714;28;20236;-73
2023/12/08 20:23:26;;;;;;;1999.90;999.90;;;;;;;;;;5065548;28;20232;-71
2023/12/08 20:26:13;;;;;;;1999.90;999.90;;;;;;;;;;5061664;28;20210;-74
2023/12/08 20:28:58;;;;;;;1999.90;999.90;;;;;;;;;;5066120;28;20220;-72
2023/12/08 20:31:42;;;;;;;1999.90;999.90;;;;;;;;;;5063619;28;20232;-72
2023/12/08 20:34:27;;;;;;;1999.90;999.90;;;;;;;;;;5065096;28;20599;-71